עמוד ראשי
METAR-TAF:

METAR-TAF

שדות תעופה :

Tallahassee Regional Airport

טאלאהאסי, פלורידה, ארצות הברית

קו רוחב: 30-23-35N, קו אורך: 084-21-12W, גובה: 24מטר

תצפית מזג אוויר נוכחית

הדו"ח נערך לפני 1 שעות ו 6דקות, בשעה 19:53 UTC
רוח 14קשר מכיוון מזרח עם משבים עד 20קשר
טמפרטורת 34 צלסיוס
לחות 41%
לחץ 1016 hPa
ראות: 16.1קילומטר
עננים בינוניים בגובה 5500רגל
עננים בינוניים בגובה 7000רגל

METAR: KTLH 171953Z 08014G20KT 10SM BKN055 BKN070 34/19 A3000 RMK AO2 SLP158 T03390194

זמן: 16:59 (20:59 UTC)

תחזית

הדו"ח נערך לפני 3 שעות ו 27דקות, בשעה 17:32 UTC
תחזית בתוקף מ 17 ב 18 UTC עד 18 ב 18 UTC
רוח 10קשר מכיוון מזרח
ראות: 10קילומטר
עננים פזורים בגובה 5000רגל
עננים פזורים בגובה 25000רגל

TAF: KTLH 171732Z 1718/1818 10010KT P6SM SCT050 SCT250

תצפיות ותחזיות מזג אוויר לגבי יותר מ- 4,000 שדות תעופה ברחבי העולם. דוחות METAR ו- TAF.

התחנות הזמינות מסומנות בנקודות צהובות ואדומות על גבי המפה.

העבר את העכבר לנקודה הצבעונית על מנת לראות את שם התחנה.

לאחר מכן, לחץ כדי לראות את תוכן ואת תחזיות מזג האוויר.

כדי לשנות את המפה: לחץ על הכפתורים הירוקים עם הפלוס השחור כדי להתקרב; על הכפתור הירוק עם המקף כדי להתרחק; או בחיצים הירוקים למפות סמוכות.


METAR-TAF: